createdAt,value
2016-03-25T00:00:23.791Z,7.81
2016-03-25T00:01:23.794Z,7.89
2016-03-25T00:02:23.766Z,7.91
2016-03-25T00:03:23.784Z,7.97
2016-03-25T00:04:23.724Z,7.83
2016-03-25T00:05:23.710Z,7.95
2016-03-25T00:06:23.697Z,7.86
2016-03-25T00:07:23.724Z,7.86
2016-03-25T00:08:24.695Z,7.88
2016-03-25T00:09:23.665Z,7.83
2016-03-25T00:10:23.653Z,7.81
2016-03-25T00:11:23.640Z,7.79
2016-03-25T00:12:23.628Z,7.86
2016-03-25T00:13:23.614Z,7.95
2016-03-25T00:14:23.570Z,7.88
2016-03-25T00:15:23.573Z,7.81
2016-03-25T00:16:23.575Z,7.92
2016-03-25T00:17:23.531Z,7.94
2016-03-25T00:18:23.519Z,7.92
2016-03-25T00:19:23.521Z,7.84
2016-03-25T00:20:23.508Z,7.95
2016-03-25T00:21:23.480Z,7.98
2016-03-25T00:22:23.466Z,7.95
2016-03-25T00:23:23.453Z,7.99
2016-03-25T00:24:23.441Z,7.84
2016-03-25T00:25:23.427Z,7.88
2016-03-25T00:26:23.415Z,7.88
2016-03-25T00:27:23.418Z,7.95
2016-03-25T00:28:23.373Z,7.95
2016-03-25T00:29:23.361Z,7.79
2016-03-25T00:30:23.363Z,7.86
2016-03-25T00:31:23.334Z,7.89
2016-03-25T00:32:23.321Z,7.81
2016-03-25T00:33:23.324Z,7.86
2016-03-25T00:34:23.296Z,7.8
2016-03-25T00:35:23.283Z,7.77
2016-03-25T00:36:23.285Z,7.91
2016-03-25T00:37:23.257Z,7.86
2016-03-25T00:38:23.243Z,7.89
2016-03-25T00:39:23.231Z,7.81
2016-03-25T00:40:23.218Z,7.86
2016-03-25T00:41:23.189Z,7.86
2016-03-25T00:42:23.176Z,7.84
2016-03-25T00:43:23.164Z,7.86
2016-03-25T00:44:23.150Z,7.8
2016-03-25T00:45:23.154Z,7.92
2016-03-25T00:46:23.125Z,7.94
2016-03-25T00:47:23.096Z,7.86
2016-03-25T00:48:23.115Z,7.89
2016-03-25T00:49:23.070Z,7.89
2016-03-25T00:50:23.057Z,7.81
2016-03-25T00:51:23.061Z,7.83
2016-03-25T00:52:23.031Z,7.95
2016-03-25T00:53:23.019Z,7.95
2016-03-25T00:54:23.006Z,7.86
2016-03-25T00:55:22.993Z,7.83
2016-03-25T00:56:22.980Z,7.88
2016-03-25T00:57:22.966Z,7.89
2016-03-25T00:58:22.954Z,7.91
2016-03-25T00:59:22.940Z,7.79
2016-03-25T01:00:22.928Z,7.89
2016-03-25T01:01:22.915Z,7.81
2016-03-25T01:02:22.918Z,7.86
2016-03-25T01:03:22.890Z,7.81
2016-03-25T01:04:22.861Z,7.83
2016-03-25T01:05:22.848Z,7.83
2016-03-25T01:06:22.835Z,7.84
2016-03-25T01:07:22.822Z,7.91
2016-03-25T01:08:22.793Z,7.8
2016-03-25T01:09:22.796Z,7.83
2016-03-25T01:10:22.784Z,7.91
2016-03-25T01:11:22.754Z,7.88
2016-03-25T01:12:22.742Z,7.8
2016-03-25T01:13:22.572Z,7.88
2016-03-25T01:14:22.715Z,7.8
2016-03-25T01:15:22.703Z,7.89
2016-03-25T01:16:22.675Z,7.94
2016-03-25T01:17:22.678Z,7.94
2016-03-25T01:18:22.680Z,7.97
2016-03-25T01:19:22.651Z,7.91
2016-03-25T01:20:22.623Z,7.89
2016-03-25T01:21:22.625Z,7.95
2016-03-25T01:22:22.597Z,7.97
2016-03-25T01:23:22.630Z,7.97
2016-03-25T01:24:22.571Z,7.99
2016-03-25T01:25:22.558Z,7.92
2016-03-25T01:26:22.577Z,7.91
2016-03-25T01:27:22.516Z,7.99
2016-03-25T01:28:22.550Z,7.91
2016-03-25T01:29:22.505Z,7.91
2016-03-25T01:30:22.494Z,7.91
2016-03-25T01:31:22.465Z,7.98
2016-03-25T01:32:22.452Z,7.91
2016-03-25T01:33:22.454Z,7.94
2016-03-25T01:34:22.441Z,7.97
2016-03-25T01:35:22.413Z,7.97
2016-03-25T01:36:22.416Z,8.02
2016-03-25T01:37:22.387Z,7.94
2016-03-25T01:38:22.374Z,7.91
2016-03-25T01:39:22.361Z,7.88
2016-03-25T01:40:22.332Z,7.95
2016-03-25T01:41:22.335Z,7.81
2016-03-25T01:42:22.307Z,7.92
2016-03-25T01:43:22.309Z,7.97
2016-03-25T01:44:22.281Z,7.92
2016-03-25T01:45:22.268Z,7.86
2016-03-25T01:46:22.255Z,7.83
2016-03-25T01:47:22.242Z,7.81
2016-03-25T01:48:22.229Z,7.84
2016-03-25T01:49:22.216Z,7.86
2016-03-25T01:50:22.203Z,7.73
2016-03-25T01:51:22.190Z,7.74
2016-03-25T01:52:22.161Z,7.76
2016-03-25T01:53:22.149Z,7.72
2016-03-25T01:54:22.136Z,7.69
2016-03-25T01:55:22.122Z,7.69
2016-03-25T01:56:22.110Z,7.77
2016-03-25T01:57:22.175Z,7.72
2016-03-25T01:58:22.069Z,7.73
2016-03-25T01:59:22.071Z,7.63
2016-03-25T02:00:22.043Z,7.7
2016-03-25T02:01:22.233Z,7.74
2016-03-25T02:02:22.049Z,7.73
2016-03-25T02:03:22.019Z,7.79
2016-03-25T02:04:21.990Z,7.69
2016-03-25T02:05:21.977Z,7.72
2016-03-25T02:06:21.965Z,7.72
2016-03-25T02:07:21.952Z,7.63
2016-03-25T02:08:21.954Z,7.61
2016-03-25T02:09:21.910Z,7.55
2016-03-25T02:10:21.898Z,7.58
2016-03-25T02:11:21.884Z,7.6
2016-03-25T02:12:21.871Z,7.53
2016-03-25T02:13:21.859Z,7.55
2016-03-25T02:14:21.845Z,7.54
2016-03-25T02:15:21.818Z,7.63
2016-03-25T02:16:21.804Z,7.6
2016-03-25T02:17:21.806Z,7.55
2016-03-25T02:18:21.779Z,7.47
2016-03-25T02:19:21.781Z,7.53
2016-03-25T02:20:21.767Z,7.53
2016-03-25T02:21:21.740Z,7.53
2016-03-25T02:22:21.711Z,7.4
2016-03-25T02:23:21.730Z,7.47
2016-03-25T02:24:21.685Z,7.54
2016-03-25T02:25:21.688Z,7.5
2016-03-25T02:26:21.659Z,7.55
2016-03-25T02:27:21.646Z,7.47
2016-03-25T02:28:21.633Z,7.5
2016-03-25T02:29:21.635Z,7.43
2016-03-25T02:30:21.623Z,7.43
2016-03-25T02:31:21.611Z,7.5
2016-03-25T02:32:21.582Z,7.45
2016-03-25T02:33:21.568Z,7.45
2016-03-25T02:34:21.556Z,7.53
2016-03-25T02:35:21.527Z,7.4
2016-03-25T02:36:21.529Z,7.47
2016-03-25T02:37:21.517Z,7.42
2016-03-25T02:38:21.488Z,7.46
2016-03-25T02:39:21.476Z,7.51
2016-03-25T02:40:21.463Z,7.45
2016-03-25T02:41:21.653Z,7.47
2016-03-25T02:42:21.437Z,7.5
2016-03-25T02:43:21.424Z,7.46
2016-03-25T02:44:21.411Z,7.46
2016-03-25T02:45:21.397Z,7.45
2016-03-25T02:46:21.384Z,7.53
2016-03-25T02:47:21.348Z,7.46
2016-03-25T02:48:21.320Z,7.46
2016-03-25T02:49:21.293Z,7.5
2016-03-25T02:50:21.264Z,7.5
2016-03-25T02:51:21.237Z,7.51
2016-03-25T02:52:21.464Z,7.47
2016-03-25T02:53:21.180Z,7.37
2016-03-25T02:54:21.178Z,7.39
2016-03-25T02:55:21.159Z,7.45
2016-03-25T02:56:21.157Z,7.43
2016-03-25T02:57:21.108Z,7.37
2016-03-25T02:58:21.094Z,7.35
2016-03-25T02:59:21.110Z,7.42
2016-03-25T03:00:21.064Z,7.37
2016-03-25T03:01:21.049Z,7.36
2016-03-25T03:02:21.019Z,7.4
2016-03-25T03:03:21.021Z,7.37
2016-03-25T03:04:20.992Z,7.35
2016-03-25T03:05:20.979Z,7.42
2016-03-25T03:06:20.980Z,7.45
2016-03-25T03:07:20.950Z,7.4
2016-03-25T03:08:20.922Z,7.39
2016-03-25T03:09:20.908Z,7.28
2016-03-25T03:10:20.910Z,7.28
2016-03-25T03:11:20.882Z,7.28
2016-03-25T03:12:20.884Z,7.27
2016-03-25T03:13:21.653Z,7.36
2016-03-25T03:14:20.843Z,7.27
2016-03-25T03:15:20.830Z,7.25
2016-03-25T03:16:20.817Z,7.33
2016-03-25T03:17:20.789Z,7.33
2016-03-25T03:18:20.775Z,7.29
2016-03-25T03:19:20.763Z,7.27
2016-03-25T03:20:20.766Z,7.19
2016-03-25T03:21:20.737Z,7.12
2016-03-25T03:22:20.708Z,7.24
2016-03-25T03:23:20.711Z,7.15
2016-03-25T03:24:20.698Z,7.22
2016-03-25T03:25:20.669Z,7.22
2016-03-25T03:26:20.657Z,7.27
2016-03-25T03:27:20.660Z,7.22
2016-03-25T03:28:20.630Z,7.22
2016-03-25T03:29:20.603Z,7.22
2016-03-25T03:30:20.606Z,7.17
2016-03-25T03:31:20.592Z,7.25
2016-03-25T03:32:20.564Z,7.29
2016-03-25T03:33:20.567Z,7.19
2016-03-25T03:34:20.538Z,7.19
2016-03-25T03:35:20.525Z,7.21
2016-03-25T03:36:20.513Z,7.14
2016-03-25T03:37:20.483Z,7.17
2016-03-25T03:38:20.472Z,7.1
2016-03-25T03:39:20.474Z,7.12
2016-03-25T03:40:20.445Z,7.17
2016-03-25T03:41:20.433Z,7.17
2016-03-25T03:42:20.419Z,7.17
2016-03-25T03:43:20.390Z,7.18
2016-03-25T03:44:20.394Z,7.17
2016-03-25T03:45:20.380Z,7.12
2016-03-25T03:46:20.352Z,7.1
2016-03-25T03:47:20.183Z,7.1
2016-03-25T03:48:20.342Z,7.07
2016-03-25T03:49:20.298Z,7.06
2016-03-25T03:50:20.300Z,7.1
2016-03-25T03:51:20.131Z,7
2016-03-25T03:52:20.274Z,6.97
2016-03-25T03:53:20.292Z,7.02
2016-03-25T03:54:20.234Z,7.07
2016-03-25T03:55:20.204Z,7.1
2016-03-25T03:56:20.206Z,7.04
2016-03-25T03:57:20.179Z,7.12
2016-03-25T03:58:20.165Z,7.03
2016-03-25T03:59:20.153Z,7.09
2016-03-25T04:00:20.139Z,7.02
2016-03-25T04:01:20.127Z,7
2016-03-25T04:02:20.114Z,7.06
2016-03-25T04:03:20.085Z,7.03
2016-03-25T04:04:20.088Z,7.04
2016-03-25T04:05:20.059Z,7.02
2016-03-25T04:06:20.047Z,6.97
2016-03-25T04:07:20.033Z,7
2016-03-25T04:08:20.035Z,6.97
2016-03-25T04:09:19.992Z,6.97
2016-03-25T04:10:19.979Z,7.04
2016-03-25T04:11:19.966Z,7.04
2016-03-25T04:12:19.985Z,6.99
2016-03-25T04:13:19.190Z,7.02
2016-03-25T04:14:19.927Z,7
2016-03-25T04:15:19.915Z,7
2016-03-25T04:16:19.901Z,7
2016-03-25T04:17:19.888Z,7
2016-03-25T04:18:19.860Z,6.99
2016-03-25T04:19:19.832Z,7.07
2016-03-25T04:20:19.834Z,6.96
2016-03-25T04:21:19.821Z,6.99
2016-03-25T04:22:19.808Z,7
2016-03-25T04:23:19.702Z,6.96
2016-03-25T04:24:19.767Z,6.97
2016-03-25T04:25:19.753Z,6.99
2016-03-25T04:26:19.756Z,7.03
2016-03-25T04:27:19.728Z,7.04
2016-03-25T04:28:19.715Z,7.02
2016-03-25T04:29:19.702Z,7.03
2016-03-25T04:30:19.673Z,7.03
2016-03-25T04:31:19.676Z,7.03
2016-03-25T04:32:19.647Z,7.1
2016-03-25T04:33:19.634Z,7
2016-03-25T04:34:19.622Z,7.03
2016-03-25T04:35:19.608Z,7.07
2016-03-25T04:36:19.597Z,7.07
2016-03-25T04:37:19.567Z,7.06
2016-03-25T04:38:19.679Z,7.07
2016-03-25T04:39:19.542Z,7.03
2016-03-25T04:40:19.528Z,6.97
2016-03-25T04:41:19.515Z,6.99
2016-03-25T04:42:19.502Z,7.02
2016-03-25T04:43:19.474Z,7
2016-03-25T04:44:19.477Z,6.97
2016-03-25T04:45:19.449Z,7.04
2016-03-25T04:46:19.435Z,7.03
2016-03-25T04:47:19.406Z,7.02
2016-03-25T04:48:19.394Z,7.06
2016-03-25T04:49:19.396Z,7.02
2016-03-25T04:50:19.367Z,7.06
2016-03-25T04:51:19.355Z,7.02
2016-03-25T04:52:19.326Z,7.04
2016-03-25T04:53:19.470Z,7.03
2016-03-25T04:54:19.301Z,7
2016-03-25T04:55:19.303Z,7
2016-03-25T04:56:19.290Z,7
2016-03-25T04:57:19.355Z,6.97
2016-03-25T04:58:19.249Z,7.02
2016-03-25T04:59:19.236Z,6.97
2016-03-25T05:00:19.207Z,7.02
2016-03-25T05:01:19.210Z,6.96
2016-03-25T05:02:19.181Z,7.02
2016-03-25T05:03:19.184Z,7
2016-03-25T05:04:19.155Z,7
2016-03-25T05:05:19.142Z,7
2016-03-25T05:06:19.129Z,6.89
2016-03-25T05:07:19.100Z,6.89
2016-03-25T05:08:19.152Z,7.02
2016-03-25T05:09:19.077Z,7.04
2016-03-25T05:10:19.063Z,6.94
2016-03-25T05:11:19.051Z,7.02
2016-03-25T05:12:19.037Z,7
2016-03-25T05:13:19.009Z,7.03
2016-03-25T05:14:18.996Z,7.03
2016-03-25T05:15:18.983Z,6.99
2016-03-25T05:16:18.970Z,6.96
2016-03-25T05:17:18.941Z,6.99
2016-03-25T05:18:18.928Z,7.04
2016-03-25T05:19:18.916Z,7.04
2016-03-25T05:20:19.136Z,7.02
2016-03-25T05:21:18.889Z,7
2016-03-25T05:22:18.877Z,7
2016-03-25T05:23:18.972Z,6.94
2016-03-25T05:24:18.835Z,7.04
2016-03-25T05:25:18.822Z,6.94
2016-03-25T05:26:18.810Z,6.99
2016-03-25T05:27:18.812Z,6.84
2016-03-25T05:28:18.783Z,6.92
2016-03-25T05:29:18.755Z,6.94
2016-03-25T05:30:18.742Z,6.84
2016-03-25T05:31:18.729Z,6.96
2016-03-25T05:32:18.747Z,6.86
2016-03-25T05:33:17.954Z,6.86
2016-03-25T05:34:18.799Z,6.85
2016-03-25T05:35:18.662Z,6.96
2016-03-25T05:36:18.664Z,6.96
2016-03-25T05:37:18.636Z,6.92
2016-03-25T05:38:19.201Z,6.81
2016-03-25T05:39:18.610Z,6.88
2016-03-25T05:40:18.598Z,6.85
2016-03-25T05:41:18.568Z,6.89
2016-03-25T05:42:18.571Z,6.86
2016-03-25T05:43:18.543Z,6.84
2016-03-25T05:44:18.542Z,6.81
2016-03-25T05:45:18.514Z,6.92
2016-03-25T05:46:18.517Z,6.91
2016-03-25T05:47:18.472Z,6.89
2016-03-25T05:48:18.459Z,6.86
2016-03-25T05:49:18.461Z,6.99
2016-03-25T05:50:18.434Z,7
2016-03-25T05:51:18.421Z,6.97
2016-03-25T05:52:18.407Z,6.96
2016-03-25T05:53:18.395Z,6.97
2016-03-25T05:54:18.397Z,6.89
2016-03-25T05:55:18.352Z,7.06
2016-03-25T05:56:18.341Z,6.99
2016-03-25T05:57:18.327Z,6.97
2016-03-25T05:58:18.319Z,6.96
2016-03-25T05:59:18.307Z,6.97
2016-03-25T06:00:18.293Z,7.04
2016-03-25T06:01:18.264Z,6.97
2016-03-25T06:02:18.252Z,7
2016-03-25T06:03:18.239Z,7
2016-03-25T06:04:18.210Z,6.97
2016-03-25T06:05:18.198Z,7.14
2016-03-25T06:06:18.184Z,7.04
2016-03-25T06:07:18.172Z,7
2016-03-25T06:08:18.159Z,7.04
2016-03-25T06:09:18.145Z,7.07
2016-03-25T06:10:18.148Z,7.14
2016-03-25T06:11:18.120Z,7.07
2016-03-25T06:12:18.091Z,7.19
2016-03-25T06:13:18.079Z,7.14
2016-03-25T06:14:18.066Z,7.15
2016-03-25T06:15:18.068Z,7.14
2016-03-25T06:16:18.072Z,7.19
2016-03-25T06:17:18.245Z,7.12
2016-03-25T06:18:17.997Z,7.24
2016-03-25T06:19:17.985Z,7.24
2016-03-25T06:20:17.972Z,7.29
2016-03-25T06:21:17.960Z,7.21
2016-03-25T06:22:17.946Z,7.28
2016-03-25T06:23:17.980Z,7.33
2016-03-25T06:24:17.764Z,7.29
2016-03-25T06:25:17.891Z,7.24
2016-03-25T06:26:17.894Z,7.22
2016-03-25T06:27:17.866Z,7.32
2016-03-25T06:28:17.884Z,7.36
2016-03-25T06:29:17.840Z,7.32
2016-03-25T06:30:17.827Z,7.28
2016-03-25T06:31:17.798Z,7.32
2016-03-25T06:32:17.785Z,7.32
2016-03-25T06:33:17.820Z,7.43
2016-03-25T06:34:17.760Z,7.4
2016-03-25T06:35:17.748Z,7.46
2016-03-25T06:36:17.937Z,7.39
2016-03-25T06:37:17.721Z,7.35
2016-03-25T06:38:17.693Z,7.35
2016-03-25T06:39:17.679Z,7.37
2016-03-25T06:40:17.666Z,7.43
2016-03-25T06:41:17.654Z,7.45
2016-03-25T06:42:17.656Z,7.47
2016-03-25T06:43:17.627Z,7.45
2016-03-25T06:44:17.615Z,7.5
2016-03-25T06:45:17.602Z,7.47
2016-03-25T06:46:17.589Z,7.54
2016-03-25T06:47:17.561Z,7.6
2016-03-25T06:48:17.547Z,7.55
2016-03-25T06:49:17.535Z,7.54
2016-03-25T06:50:17.522Z,7.57
2016-03-25T06:51:17.508Z,7.61
2016-03-25T06:52:17.496Z,7.61
2016-03-25T06:53:17.483Z,7.55
2016-03-25T06:54:17.454Z,7.63
2016-03-25T06:55:17.442Z,7.61
2016-03-25T06:56:17.429Z,7.6
2016-03-25T06:57:18.368Z,7.58
2016-03-25T06:58:17.418Z,7.7
2016-03-25T06:59:17.374Z,7.74
2016-03-25T07:00:17.392Z,7.79
2016-03-25T07:01:17.348Z,7.58
2016-03-25T07:02:17.351Z,7.72
2016-03-25T07:03:17.323Z,7.58
2016-03-25T07:04:17.309Z,7.61
2016-03-25T07:05:17.296Z,7.66
2016-03-25T07:06:17.283Z,7.73
2016-03-25T07:07:17.270Z,7.64
2016-03-25T07:08:17.257Z,7.66
2016-03-25T07:09:17.229Z,7.77
2016-03-25T07:10:17.231Z,7.7
2016-03-25T07:11:17.204Z,7.79
2016-03-25T07:12:17.190Z,7.73
2016-03-25T07:13:17.192Z,7.7
2016-03-25T07:14:17.164Z,7.73
2016-03-25T07:15:17.151Z,7.73
2016-03-25T07:16:17.138Z,7.7
2016-03-25T07:17:17.125Z,7.74
2016-03-25T07:18:17.097Z,7.8
2016-03-25T07:19:17.083Z,7.79
2016-03-25T07:20:17.087Z,7.73
2016-03-25T07:21:17.058Z,7.83
2016-03-25T07:22:17.060Z,7.76
2016-03-25T07:23:17.033Z,7.7
2016-03-25T07:24:17.019Z,7.72
2016-03-25T07:25:17.006Z,7.79
2016-03-25T07:26:16.993Z,7.79
2016-03-25T07:27:16.980Z,7.86
2016-03-25T07:28:16.952Z,7.8
2016-03-25T07:29:16.955Z,7.94
2016-03-25T07:30:16.927Z,7.92
2016-03-25T07:31:16.913Z,7.95
2016-03-25T07:32:16.901Z,7.99
2016-03-25T07:33:16.871Z,8.06
2016-03-25T07:34:16.874Z,8.01
2016-03-25T07:35:16.861Z,8.02
2016-03-25T07:36:16.849Z,7.97
2016-03-25T07:37:16.820Z,7.91
2016-03-25T07:38:16.823Z,8.04
2016-03-25T07:39:16.795Z,8.06
2016-03-25T07:40:16.797Z,8.12
2016-03-25T07:41:16.767Z,8.06
2016-03-25T07:42:16.756Z,8.09
2016-03-25T07:43:16.742Z,7.95
2016-03-25T07:44:16.729Z,7.99
2016-03-25T07:45:16.717Z,7.95
2016-03-25T07:46:16.704Z,7.99
2016-03-25T07:47:16.722Z,7.99
2016-03-25T07:48:16.678Z,8.06
2016-03-25T07:49:16.665Z,8.1
2016-03-25T07:50:16.636Z,7.99
2016-03-25T07:51:16.639Z,7.94
2016-03-25T07:52:16.610Z,7.98
2016-03-25T07:53:16.597Z,8.1
2016-03-25T07:54:16.585Z,8.04
2016-03-25T07:55:16.572Z,7.98
2016-03-25T07:56:16.558Z,8.01
2016-03-25T07:57:16.545Z,8.1
2016-03-25T07:58:16.516Z,8.07
2016-03-25T07:59:16.520Z,8.07
2016-03-25T08:00:16.507Z,8.09
2016-03-25T08:01:16.493Z,8.12
2016-03-25T08:02:16.482Z,8.15
2016-03-25T08:03:16.452Z,8.1
2016-03-25T08:04:16.454Z,8.09
2016-03-25T08:05:16.426Z,8.09
2016-03-25T08:06:16.429Z,8.19
2016-03-25T08:07:16.416Z,8.1
2016-03-25T08:08:16.403Z,8.16
2016-03-25T08:09:16.453Z,8.19
2016-03-25T08:10:16.346Z,8.09
2016-03-25T08:11:16.364Z,8.06
2016-03-25T08:12:16.320Z,8.1
2016-03-25T08:13:16.323Z,8.16
2016-03-25T08:14:16.294Z,8.2
2016-03-25T08:15:16.281Z,8.13
2016-03-25T08:16:16.269Z,8.2
2016-03-25T08:17:16.256Z,8.19
2016-03-25T08:18:16.258Z,8.15
2016-03-25T08:19:16.573Z,8.2
2016-03-25T08:20:16.217Z,8.3
2016-03-25T08:21:16.188Z,8.22
2016-03-25T08:22:16.191Z,8.16
2016-03-25T08:23:16.178Z,8.16
2016-03-25T08:24:16.149Z,8.2
2016-03-25T08:25:16.136Z,8.16
2016-03-25T08:26:16.124Z,8.17
2016-03-25T08:27:16.110Z,8.17
2016-03-25T08:28:17.004Z,8.15
2016-03-25T08:29:16.335Z,8.09
2016-03-25T08:30:16.071Z,8.13
2016-03-25T08:31:16.060Z,8.07
2016-03-25T08:32:16.046Z,8.17
2016-03-25T08:33:16.018Z,8.02
2016-03-25T08:34:16.005Z,8.01
2016-03-25T08:35:16.210Z,7.98
2016-03-25T08:36:15.994Z,7.99
2016-03-25T08:37:15.965Z,8.01
2016-03-25T08:38:15.953Z,8.1
2016-03-25T08:39:16.001Z,8.07
2016-03-25T08:40:15.926Z,8.1
2016-03-25T08:41:15.945Z,8.06
2016-03-25T08:42:15.901Z,7.97
2016-03-25T08:43:15.904Z,7.98
2016-03-25T08:44:15.875Z,8.02
2016-03-25T08:45:16.722Z,7.89
2016-03-25T08:46:15.850Z,8.06
2016-03-25T08:47:15.820Z,7.98
2016-03-25T08:48:15.808Z,8.01
2016-03-25T08:49:15.045Z,8.09
2016-03-25T08:50:15.798Z,7.99
2016-03-25T08:51:15.785Z,8.09
2016-03-25T08:52:15.772Z,7.99
2016-03-25T08:53:15.744Z,8.1
2016-03-25T08:54:15.933Z,8.04
2016-03-25T08:55:15.717Z,8.06
2016-03-25T08:56:15.705Z,8.04
2016-03-25T08:57:15.691Z,8.06
2016-03-25T08:58:15.678Z,8.07
2016-03-25T08:59:15.649Z,8.13
2016-03-25T09:00:15.652Z,8.09
2016-03-25T09:01:15.858Z,8.15
2016-03-25T09:02:15.611Z,8.17
2016-03-25T09:03:15.599Z,8.06
2016-03-25T09:04:15.585Z,8.15
2016-03-25T09:05:15.571Z,8.01
2016-03-25T09:06:15.559Z,7.98
2016-03-25T09:07:15.562Z,7.98
2016-03-25T09:08:15.517Z,8.07
2016-03-25T09:09:15.723Z,8.01
2016-03-25T09:10:15.492Z,7.98
2016-03-25T09:11:15.479Z,7.95
2016-03-25T09:12:15.465Z,8.01
2016-03-25T09:13:15.453Z,7.98
2016-03-25T09:14:15.440Z,7.98
2016-03-25T09:15:15.428Z,7.99
2016-03-25T09:16:15.430Z,7.98
2016-03-25T09:17:15.401Z,7.99
2016-03-25T09:18:15.389Z,8.02
2016-03-25T09:19:15.376Z,8.06
2016-03-25T09:20:15.378Z,8.02
2016-03-25T09:21:15.334Z,7.91
2016-03-25T09:22:15.322Z,8.02
2016-03-25T09:23:15.309Z,8.04
2016-03-25T09:24:15.342Z,8.02
2016-03-25T09:25:15.314Z,8.01
2016-03-25T09:26:15.270Z,8.04
2016-03-25T09:27:15.256Z,7.97
2016-03-25T09:28:15.244Z,7.92
2016-03-25T09:29:15.231Z,8.01
2016-03-25T09:30:15.218Z,7.92
2016-03-25T09:31:15.205Z,7.97
2016-03-25T09:32:15.192Z,8.1
2016-03-25T09:33:15.147Z,8.06
2016-03-25T09:34:15.166Z,8.01
2016-03-25T09:35:15.138Z,7.92
2016-03-25T09:36:15.124Z,8.04
2016-03-25T09:37:15.127Z,8.01
2016-03-25T09:38:15.083Z,7.95
2016-03-25T09:39:15.304Z,7.89
2016-03-25T09:40:15.057Z,7.83
2016-03-25T09:41:15.059Z,7.83
2016-03-25T09:42:15.032Z,7.81
2016-03-25T09:43:15.018Z,7.94
2016-03-25T09:44:15.006Z,8.01
2016-03-25T09:45:14.993Z,7.95
2016-03-25T09:46:14.979Z,8.02
2016-03-25T09:47:14.966Z,7.98
2016-03-25T09:48:14.953Z,8.01
2016-03-25T09:49:14.940Z,8.01
2016-03-25T09:50:14.912Z,8.02
2016-03-25T09:51:14.899Z,8.06
2016-03-25T09:52:14.887Z,7.99
2016-03-25T09:53:14.873Z,8.07
2016-03-25T09:54:14.922Z,8.15
2016-03-25T09:55:14.848Z,8.06
2016-03-25T09:56:14.678Z,8.17
2016-03-25T09:57:14.806Z,8.07
2016-03-25T09:58:14.808Z,8.17
2016-03-25T09:59:14.781Z,8.06
2016-03-25T10:00:14.783Z,8.1
2016-03-25T10:01:14.770Z,8.07
2016-03-25T10:02:14.742Z,8.1
2016-03-25T10:03:14.728Z,8.13
2016-03-25T10:04:14.716Z,8.17
2016-03-25T10:05:14.703Z,8.19
2016-03-25T10:06:14.690Z,8.22
2016-03-25T10:07:14.693Z,8.16
2016-03-25T10:08:14.663Z,8.2
2016-03-25T10:09:14.713Z,8.12
2016-03-25T10:10:14.638Z,8.23
2016-03-25T10:11:14.624Z,8.28
2016-03-25T10:12:14.596Z,8.16
2016-03-25T10:13:14.599Z,8.17
2016-03-25T10:14:14.587Z,8.19
2016-03-25T10:15:14.557Z,8.19
2016-03-25T10:16:14.559Z,8.23
2016-03-25T10:17:14.532Z,8.31
2016-03-25T10:18:14.518Z,8.2
2016-03-25T10:19:14.506Z,8.27
2016-03-25T10:20:14.493Z,8.28
2016-03-25T10:21:14.465Z,8.31
2016-03-25T10:22:14.467Z,8.22
2016-03-25T10:23:14.453Z,8.25
2016-03-25T10:24:14.473Z,8.16
2016-03-25T10:25:14.428Z,8.3
2016-03-25T10:26:14.400Z,8.2
2016-03-25T10:27:14.402Z,8.17
2016-03-25T10:28:14.374Z,8.27
2016-03-25T10:29:14.376Z,8.25
2016-03-25T10:30:14.347Z,8.17
2016-03-25T10:31:14.335Z,8.25
2016-03-25T10:32:14.306Z,8.22
2016-03-25T10:33:14.293Z,8.16
2016-03-25T10:34:14.280Z,8.19
2016-03-25T10:35:14.283Z,8.25
2016-03-25T10:36:14.254Z,8.25
2016-03-25T10:37:14.241Z,8.34
2016-03-25T10:38:14.229Z,8.3
2016-03-25T10:39:14.090Z,8.34
2016-03-25T10:40:14.202Z,8.31
2016-03-25T10:41:14.190Z,8.4
2016-03-25T10:42:14.176Z,8.31
2016-03-25T10:43:14.164Z,8.45
2016-03-25T10:44:14.151Z,8.48
2016-03-25T10:45:14.137Z,8.45
2016-03-25T10:46:14.125Z,8.43
2016-03-25T10:47:14.112Z,8.52
2016-03-25T10:48:14.099Z,8.49
2016-03-25T10:49:14.070Z,8.5
2016-03-25T10:50:14.073Z,8.58
2016-03-25T10:51:14.045Z,8.58
2016-03-25T10:52:14.047Z,8.59
2016-03-25T10:53:14.019Z,8.64
2016-03-25T10:54:13.975Z,8.56
2016-03-25T10:55:14.008Z,8.59
2016-03-25T10:56:13.980Z,8.67
2016-03-25T10:57:13.967Z,8.7
2016-03-25T10:58:13.954Z,8.68
2016-03-25T10:59:13.957Z,8.74
2016-03-25T11:00:13.928Z,8.76
2016-03-25T11:01:13.946Z,8.73
2016-03-25T11:02:13.902Z,8.78
2016-03-25T11:03:13.889Z,8.78
2016-03-25T11:04:13.861Z,8.91
2016-03-25T11:05:13.863Z,8.95
2016-03-25T11:06:13.835Z,9.08
2016-03-25T11:07:13.854Z,9.04
2016-03-25T11:08:13.809Z,9.19
2016-03-25T11:09:13.874Z,9.2
2016-03-25T11:10:13.783Z,9.29
2016-03-25T11:11:13.785Z,9.47
2016-03-25T11:12:13.757Z,9.71
2016-03-25T11:13:13.760Z,9.88
2016-03-25T11:14:13.731Z,9.94
2016-03-25T11:15:13.734Z,9.99
2016-03-25T11:16:13.721Z,10.23
2016-03-25T11:17:13.692Z,10.39
2016-03-25T11:18:13.695Z,10.49
2016-03-25T11:19:13.682Z,10.51
2016-03-25T11:20:13.670Z,10.66
2016-03-25T11:21:13.656Z,10.56
2016-03-25T11:22:13.644Z,10.51
2016-03-25T11:23:13.647Z,10.58
2016-03-25T11:24:13.634Z,10.54
2016-03-25T11:25:13.606Z,10.72
2016-03-25T11:26:13.592Z,10.51
2016-03-25T11:27:13.579Z,10.53
2016-03-25T11:28:13.567Z,10.63
2016-03-25T11:29:13.570Z,10.45
2016-03-25T11:30:13.556Z,10.41
2016-03-25T11:31:13.544Z,10.45
2016-03-25T11:32:13.531Z,10.31
2016-03-25T11:33:13.517Z,10.16
2016-03-25T11:34:13.520Z,10.19
2016-03-25T11:35:13.492Z,10.19
2016-03-25T11:36:13.494Z,10.19
2016-03-25T11:37:13.466Z,10.2
2016-03-25T11:38:13.469Z,10.19
2016-03-25T11:39:13.456Z,10.04
2016-03-25T11:40:13.443Z,9.9
2016-03-25T11:41:13.360Z,9.83
2016-03-25T11:42:13.478Z,9.87
2016-03-25T11:43:13.246Z,9.91
2016-03-25T11:44:15.079Z,9.91
2016-03-25T11:45:13.355Z,9.66
2016-03-25T11:46:13.357Z,9.63
2016-03-25T11:47:13.344Z,9.77
2016-03-25T11:48:13.331Z,9.71
2016-03-25T11:49:13.303Z,9.63
2016-03-25T11:50:13.306Z,9.66
2016-03-25T11:51:13.276Z,9.65
2016-03-25T11:52:13.311Z,9.68
2016-03-25T11:53:13.257Z,9.74
2016-03-25T11:54:13.225Z,9.68
2016-03-25T11:55:13.203Z,9.59
2016-03-25T11:56:13.178Z,9.56
2016-03-25T11:57:13.162Z,9.51
2016-03-25T11:58:13.138Z,9.59
2016-03-25T11:59:13.120Z,9.58
2016-03-25T12:00:13.103Z,9.47
2016-03-25T12:01:13.101Z,9.56
2016-03-25T12:02:13.069Z,9.44
2016-03-25T12:03:13.067Z,9.53
2016-03-25T12:04:13.068Z,9.53
2016-03-25T12:05:13.023Z,9.51
2016-03-25T12:06:13.010Z,9.58
2016-03-25T12:07:13.011Z,9.56
2016-03-25T12:08:12.966Z,9.63
2016-03-25T12:09:12.967Z,9.62
2016-03-25T12:10:12.954Z,9.71
2016-03-25T12:11:12.940Z,9.79
2016-03-25T12:12:12.926Z,9.83
2016-03-25T12:13:12.912Z,9.81
2016-03-25T12:14:12.900Z,9.8
2016-03-25T12:15:12.903Z,9.79
2016-03-25T12:16:12.889Z,9.81
2016-03-25T12:17:12.861Z,9.83
2016-03-25T12:18:12.848Z,9.88
2016-03-25T12:19:12.850Z,9.83
2016-03-25T12:20:12.822Z,9.94
2016-03-25T12:21:12.809Z,9.9
2016-03-25T12:22:12.796Z,9.98
2016-03-25T12:23:12.784Z,9.88
2016-03-25T12:24:12.770Z,9.91
2016-03-25T12:25:12.758Z,9.9
2016-03-25T12:26:12.760Z,9.91
2016-03-25T12:27:12.732Z,9.9
2016-03-25T12:28:12.718Z,9.88
2016-03-25T12:29:12.721Z,9.94
2016-03-25T12:30:12.693Z,9.86
2016-03-25T12:31:12.679Z,9.86
2016-03-25T12:32:12.683Z,9.83
2016-03-25T12:33:12.654Z,9.91
2016-03-25T12:34:12.640Z,9.81
2016-03-25T12:35:12.644Z,9.8
2016-03-25T12:36:12.615Z,9.76
2016-03-25T12:37:12.602Z,9.69
2016-03-25T12:38:12.620Z,9.74
2016-03-25T12:39:12.576Z,9.66
2016-03-25T12:40:12.407Z,9.65
2016-03-25T12:41:12.551Z,9.54
2016-03-25T12:42:12.537Z,9.59
2016-03-25T12:43:12.525Z,9.58
2016-03-25T12:44:12.512Z,9.54
2016-03-25T12:45:12.514Z,9.44
2016-03-25T12:46:12.486Z,9.56
2016-03-25T12:47:12.472Z,9.59
2016-03-25T12:48:12.460Z,9.62
2016-03-25T12:49:12.447Z,9.65
2016-03-25T12:50:12.434Z,9.71
2016-03-25T12:51:12.421Z,9.69
2016-03-25T12:52:12.408Z,9.63
2016-03-25T12:53:12.395Z,9.56
2016-03-25T12:54:12.397Z,9.54
2016-03-25T12:55:12.353Z,9.62
2016-03-25T12:56:12.341Z,9.59
2016-03-25T12:57:12.344Z,9.56
2016-03-25T12:58:12.331Z,9.51
2016-03-25T12:59:12.318Z,9.47
2016-03-25T13:00:12.305Z,9.3
2016-03-25T13:01:12.291Z,9.4
2016-03-25T13:02:12.279Z,9.32
2016-03-25T13:03:12.282Z,9.26
2016-03-25T13:04:12.237Z,9.26
2016-03-25T13:05:12.240Z,9.28
2016-03-25T13:06:12.212Z,9.2
2016-03-25T13:07:12.245Z,9.2
2016-03-25T13:08:12.185Z,9.2
2016-03-25T13:09:12.204Z,9.23
2016-03-25T13:10:12.160Z,9.15
2016-03-25T13:11:12.146Z,9.17
2016-03-25T13:12:12.149Z,9.26
2016-03-25T13:13:11.964Z,9.22
2016-03-25T13:14:12.124Z,9.32
2016-03-25T13:15:12.095Z,9.25
2016-03-25T13:16:12.082Z,9.11
2016-03-25T13:17:12.070Z,9.08
2016-03-25T13:18:12.056Z,9.14
2016-03-25T13:19:12.043Z,9.23
2016-03-25T13:20:12.030Z,9.12
2016-03-25T13:21:12.017Z,9.2
2016-03-25T13:22:12.005Z,9.2